Time;durP1;ratioP1;P1;durP2;ratioP2;P2;SDS_P1;SDS_P2;PMS_P1;PMS_P2;Temp;Humidity;BMP_temperature;BMP_pressure;BME280_temperature;BME280_humidity;BME280_pressure;Samples;Min_cycle;Max_cycle;Signal;HPM_P1;HPM_P2
2023/04/24 00:02:27;;;;;;;1.10;0.77;;;;;;;;;;5111118;28;20134;-66
2023/04/24 00:04:54;;;;;;;1.30;0.90;;;;;;;;;;5111805;28;20050;-66
2023/04/24 00:07:20;;;;;;;1.10;0.90;;;;;;;;;;5111081;28;20036;-66
2023/04/24 00:09:47;;;;;;;0.80;0.77;;;;;;;;;;5111542;28;20127;-66
2023/04/24 00:12:13;;;;;;;1.70;0.82;;;;;;;;;;5111452;28;20044;-66
2023/04/24 00:14:40;;;;;;;2.20;1.00;;;;;;;;;;5110837;28;20044;-66
2023/04/24 00:17:07;;;;;;;1.48;1.00;;;;;;;;;;5111024;28;20138;-66
2023/04/24 00:19:37;;;;;;;0.93;0.85;;;;;;;;;;5110955;28;20054;-66
2023/04/24 00:22:04;;;;;;;1.23;0.80;;;;;;;;;;5111759;28;20062;-65
2023/04/24 00:24:30;;;;;;;1.10;0.70;;;;;;;;;;5110728;28;20046;-66
2023/04/24 00:27:00;;;;;;;0.65;0.65;;;;;;;;;;5110749;28;20051;-66
2023/04/24 00:29:28;;;;;;;1.88;0.80;;;;;;;;;;5110463;28;20043;-65
2023/04/24 00:31:54;;;;;;;0.77;0.70;;;;;;;;;;5111175;28;20039;-66
2023/04/24 00:34:24;;;;;;;0.80;0.70;;;;;;;;;;5110891;28;20136;-66
2023/04/24 00:36:52;;;;;;;0.70;0.70;;;;;;;;;;5110599;28;20040;-66
2023/04/24 00:39:18;;;;;;;1.20;1.10;;;;;;;;;;5110686;28;20411;-66
2023/04/24 00:41:46;;;;;;;1.55;0.75;;;;;;;;;;5110968;28;20044;-65
2023/04/24 00:44:12;;;;;;;0.70;0.70;;;;;;;;;;5110104;28;20435;-66
2023/04/24 00:46:39;;;;;;;0.77;0.70;;;;;;;;;;5110555;28;20055;-65
2023/04/24 00:49:06;;;;;;;0.80;0.80;;;;;;;;;;5110484;28;20504;-66
2023/04/24 00:51:34;;;;;;;0.70;0.70;;;;;;;;;;5110910;28;20135;-66
2023/04/24 00:54:02;;;;;;;0.60;0.60;;;;;;;;;;5110901;28;20051;-66
2023/04/24 00:56:29;;;;;;;0.70;0.70;;;;;;;;;;5110683;28;20515;-66
2023/04/24 00:58:56;;;;;;;1.20;0.70;;;;;;;;;;5110550;28;20054;-66
2023/04/24 01:01:23;;;;;;;0.70;0.70;;;;;;;;;;5110379;28;20043;-66
2023/04/24 01:03:51;;;;;;;0.80;0.80;;;;;;;;;;5110635;28;20420;-66
2023/04/24 01:06:19;;;;;;;0.80;0.80;;;;;;;;;;5108948;28;20047;-66
2023/04/24 01:08:47;;;;;;;1.42;0.80;;;;;;;;;;5112267;28;20046;-66
2023/04/24 01:11:15;;;;;;;1.23;1.00;;;;;;;;;;5110564;28;20040;-67
2023/04/24 01:13:42;;;;;;;1.42;0.88;;;;;;;;;;5110034;28;20129;-67
2023/04/24 01:16:11;;;;;;;1.08;0.98;;;;;;;;;;5111009;28;20050;-66
2023/04/24 01:18:38;;;;;;;2.75;1.60;;;;;;;;;;5110125;28;20052;-66
2023/04/24 01:21:05;;;;;;;1.60;1.50;;;;;;;;;;5110545;28;20082;-66
2023/04/24 01:23:36;;;;;;;2.40;1.70;;;;;;;;;;5110168;28;20043;-66
2023/04/24 01:26:03;;;;;;;1.70;1.60;;;;;;;;;;5110427;28;20453;-66
2023/04/24 01:28:29;;;;;;;1.55;1.42;;;;;;;;;;5109568;28;20082;-66
2023/04/24 01:30:59;;;;;;;2.78;1.77;;;;;;;;;;5110366;28;20040;-67
2023/04/24 01:33:26;;;;;;;2.30;1.67;;;;;;;;;;5110336;28;20104;-65
2023/04/24 01:35:53;;;;;;;2.40;1.70;;;;;;;;;;5108909;28;20050;-66
2023/04/24 01:38:20;;;;;;;3.45;2.00;;;;;;;;;;5110429;28;20142;-66
2023/04/24 01:40:48;;;;;;;2.95;1.60;;;;;;;;;;5109942;28;20134;-67
2023/04/24 01:43:14;;;;;;;3.10;2.13;;;;;;;;;;5109937;28;20058;-67
2023/04/24 01:45:41;;;;;;;1.98;1.77;;;;;;;;;;5109704;28;20050;-66
2023/04/24 01:48:08;;;;;;;2.90;1.80;;;;;;;;;;5109988;28;20433;-66
2023/04/24 01:50:34;;;;;;;2.15;1.95;;;;;;;;;;5110086;28;20405;-66
2023/04/24 01:53:01;;;;;;;3.67;2.25;;;;;;;;;;5110243;28;20449;-66
2023/04/24 01:55:28;;;;;;;4.53;2.25;;;;;;;;;;5109982;28;20732;-65
2023/04/24 01:57:57;;;;;;;2.30;2.10;;;;;;;;;;5109797;28;20050;-66
2023/04/24 02:00:24;;;;;;;3.83;2.47;;;;;;;;;;5110442;28;20477;-66
2023/04/24 02:02:51;;;;;;;2.60;2.13;;;;;;;;;;5109779;28;20132;-66
2023/04/24 02:05:20;;;;;;;3.45;2.65;;;;;;;;;;5105191;28;20306;-66
2023/04/24 02:07:46;;;;;;;2.88;2.45;;;;;;;;;;5108585;28;20078;-65
2023/04/24 02:10:13;;;;;;;2.63;2.40;;;;;;;;;;5110190;28;20050;-65
2023/04/24 02:12:39;;;;;;;4.00;2.53;;;;;;;;;;5113138;27;20412;-66
2023/04/24 02:15:08;;;;;;;4.10;2.42;;;;;;;;;;5113567;28;20043;-66
2023/04/24 02:17:35;;;;;;;2.83;2.53;;;;;;;;;;5112867;28;20062;-65
2023/04/24 02:20:01;;;;;;;2.50;2.30;;;;;;;;;;5113491;28;20058;-66
2023/04/24 02:22:28;;;;;;;3.55;2.30;;;;;;;;;;5113424;28;20435;-66
2023/04/24 02:24:54;;;;;;;3.00;2.33;;;;;;;;;;5113537;28;20416;-66
2023/04/24 02:27:21;;;;;;;3.55;2.47;;;;;;;;;;5097878;28;20414;-65
2023/04/24 02:29:47;;;;;;;3.50;2.88;;;;;;;;;;5092525;28;20507;-66
2023/04/24 02:32:18;;;;;;;3.97;3.08;;;;;;;;;;5092806;28;20040;-66
2023/04/24 02:34:44;;;;;;;4.45;3.30;;;;;;;;;;5092748;28;20043;-66
2023/04/24 02:37:11;;;;;;;3.50;3.05;;;;;;;;;;5093618;28;20047;-65
2023/04/24 02:39:37;;;;;;;3.42;2.78;;;;;;;;;;5092517;28;20052;-66
2023/04/24 02:42:05;;;;;;;4.53;3.30;;;;;;;;;;5093025;28;20040;-65
2023/04/24 02:44:31;;;;;;;3.80;3.20;;;;;;;;;;5092009;28;20048;-65
2023/04/24 02:46:58;;;;;;;3.10;2.80;;;;;;;;;;5092553;28;20473;-66
2023/04/24 02:49:26;;;;;;;4.50;3.13;;;;;;;;;;5092052;28;20044;-66
2023/04/24 02:51:53;;;;;;;5.82;3.70;;;;;;;;;;5092519;28;20090;-65
2023/04/24 02:54:20;;;;;;;5.03;3.22;;;;;;;;;;5092374;28;20345;-66
2023/04/24 02:56:46;;;;;;;3.90;3.38;;;;;;;;;;5103450;28;20043;-66
2023/04/24 02:59:15;;;;;;;6.03;3.55;;;;;;;;;;5112300;28;20054;-66
2023/04/24 03:01:42;;;;;;;5.30;3.58;;;;;;;;;;5112684;28;20078;-66
2023/04/24 03:04:08;;;;;;;4.47;3.85;;;;;;;;;;5112833;28;20048;-65
2023/04/24 03:06:38;;;;;;;6.68;4.93;;;;;;;;;;5109987;27;20509;-65
2023/04/24 03:09:05;;;;;;;5.57;4.00;;;;;;;;;;5112589;28;20453;-65
2023/04/24 03:11:31;;;;;;;6.10;4.10;;;;;;;;;;5111873;28;20043;-67
2023/04/24 03:13:58;;;;;;;5.00;3.85;;;;;;;;;;5112669;28;20050;-65
2023/04/24 03:16:25;;;;;;;6.80;4.22;;;;;;;;;;5112051;28;20044;-64
2023/04/24 03:18:51;;;;;;;7.03;4.28;;;;;;;;;;5112418;28;20484;-65
2023/04/24 03:21:18;;;;;;;6.18;4.50;;;;;;;;;;5112304;28;20044;-66
2023/04/24 03:23:46;;;;;;;6.57;4.85;;;;;;;;;;5111857;28;20043;-65
2023/04/24 03:26:12;;;;;;;6.93;4.47;;;;;;;;;;5105325;28;20036;-66
2023/04/24 03:28:39;;;;;;;7.80;5.20;;;;;;;;;;5091765;28;20056;-66
2023/04/24 03:31:06;;;;;;;7.05;4.53;;;;;;;;;;5092294;28;20043;-66
2023/04/24 03:33:32;;;;;;;7.07;4.75;;;;;;;;;;5091313;28;20044;-66
2023/04/24 03:35:59;;;;;;;6.85;4.30;;;;;;;;;;5097534;28;20039;-66
2023/04/24 03:38:25;;;;;;;7.40;4.65;;;;;;;;;;5111405;28;20046;-66
2023/04/24 03:40:53;;;;;;;5.63;4.40;;;;;;;;;;5111682;28;20049;-66
2023/04/24 03:43:20;;;;;;;7.35;4.95;;;;;;;;;;5111942;28;20047;-66
2023/04/24 03:45:46;;;;;;;7.57;4.75;;;;;;;;;;5111690;28;20040;-66
2023/04/24 03:48:13;;;;;;;5.68;4.57;;;;;;;;;;5111807;28;20047;-65
2023/04/24 03:50:39;;;;;;;5.40;4.25;;;;;;;;;;5111426;28;20508;-65
2023/04/24 03:53:06;;;;;;;6.00;4.82;;;;;;;;;;5111619;28;20040;-66
2023/04/24 03:55:33;;;;;;;8.00;4.95;;;;;;;;;;5109661;28;20043;-66
2023/04/24 03:58:00;;;;;;;6.28;5.00;;;;;;;;;;5091149;28;20050;-66
2023/04/24 04:00:27;;;;;;;6.60;5.03;;;;;;;;;;5091147;28;20101;-66
2023/04/24 04:02:54;;;;;;;9.40;5.00;;;;;;;;;;5091339;28;20052;-65
2023/04/24 04:05:21;;;;;;;7.05;5.28;;;;;;;;;;5090307;28;20050;-66
2023/04/24 04:07:47;;;;;;;7.90;4.88;;;;;;;;;;5090527;28;20140;-66
2023/04/24 04:10:14;;;;;;;8.13;5.20;;;;;;;;;;5091196;28;20074;-66
2023/04/24 04:12:40;;;;;;;7.78;5.55;;;;;;;;;;5090705;28;20044;-66
2023/04/24 04:15:09;;;;;;;9.18;5.88;;;;;;;;;;5091235;28;20066;-64
2023/04/24 04:17:37;;;;;;;7.05;5.22;;;;;;;;;;5090896;28;20075;-66
2023/04/24 04:20:08;;;;;;;8.20;5.40;;;;;;;;;;5091460;28;20499;-66
2023/04/24 04:22:35;;;;;;;7.18;5.20;;;;;;;;;;5090390;28;20047;-66
2023/04/24 04:25:02;;;;;;;7.65;5.70;;;;;;;;;;5091688;28;20539;-67
2023/04/24 04:27:31;;;;;;;8.40;5.60;;;;;;;;;;5090488;28;20044;-66
2023/04/24 04:29:59;;;;;;;10.23;6.57;;;;;;;;;;5090497;28;20136;-66
2023/04/24 04:32:27;;;;;;;7.50;5.80;;;;;;;;;;5092091;28;20047;-66
2023/04/24 04:34:54;;;;;;;9.07;5.88;;;;;;;;;;5091645;28;20050;-65
2023/04/24 04:37:20;;;;;;;10.23;5.85;;;;;;;;;;5103840;28;20048;-67
2023/04/24 04:39:47;;;;;;;9.23;6.70;;;;;;;;;;5111113;28;20043;-66
2023/04/24 04:42:15;;;;;;;7.93;5.50;;;;;;;;;;5111147;28;20039;-66
2023/04/24 04:44:42;;;;;;;8.38;6.30;;;;;;;;;;5110712;28;20044;-66
2023/04/24 04:47:10;;;;;;;8.30;5.50;;;;;;;;;;5111087;28;20051;-66
2023/04/24 04:49:38;;;;;;;7.72;6.00;;;;;;;;;;5097928;22;20421;-71
2023/04/24 04:52:05;;;;;;;9.43;6.60;;;;;;;;;;5072319;28;20142;-68
2023/04/24 04:54:31;;;;;;;10.10;6.65;;;;;;;;;;5069433;28;20139;-68
2023/04/24 04:56:58;;;;;;;9.45;6.43;;;;;;;;;;5069647;28;20455;-68
2023/04/24 04:59:25;;;;;;;12.75;7.22;;;;;;;;;;5069529;28;20057;-69
2023/04/24 05:01:51;;;;;;;11.00;7.32;;;;;;;;;;5069670;28;20508;-68
2023/04/24 05:04:18;;;;;;;9.35;6.40;;;;;;;;;;5069722;28;20486;-69
2023/04/24 05:06:47;;;;;;;10.15;6.68;;;;;;;;;;5051440;28;20150;-68
2023/04/24 05:09:13;;;;;;;7.50;5.90;;;;;;;;;;5049458;28;20140;-68
2023/04/24 05:11:40;;;;;;;9.93;6.55;;;;;;;;;;5053338;28;20433;-68
2023/04/24 05:14:06;;;;;;;7.35;5.25;;;;;;;;;;5066573;28;20064;-68
2023/04/24 05:16:33;;;;;;;7.03;5.28;;;;;;;;;;5051163;28;20045;-69
2023/04/24 05:19:00;;;;;;;6.85;5.05;;;;;;;;;;5048476;28;20053;-68
2023/04/24 05:21:26;;;;;;;6.90;5.38;;;;;;;;;;5048475;28;20061;-69
2023/04/24 05:23:54;;;;;;;7.97;5.53;;;;;;;;;;5056984;28;20049;-69
2023/04/24 05:26:22;;;;;;;8.65;5.18;;;;;;;;;;5067038;28;20194;-69
2023/04/24 05:28:49;;;;;;;9.30;5.68;;;;;;;;;;5047974;28;20127;-69
2023/04/24 05:31:17;;;;;;;6.63;4.90;;;;;;;;;;5048357;28;20143;-69
2023/04/24 05:33:44;;;;;;;6.60;5.03;;;;;;;;;;5056674;28;20494;-69
2023/04/24 05:36:10;;;;;;;7.13;5.18;;;;;;;;;;5051014;28;20132;-69
2023/04/24 05:38:37;;;;;;;9.02;4.90;;;;;;;;;;5048388;28;20051;-69
2023/04/24 05:41:05;;;;;;;6.95;4.85;;;;;;;;;;5056408;28;20502;-69
2023/04/24 05:43:31;;;;;;;7.05;4.68;;;;;;;;;;5049212;28;20041;-69
2023/04/24 05:45:58;;;;;;;6.45;3.83;;;;;;;;;;5050637;28;20049;-69
2023/04/24 05:48:25;;;;;;;6.35;4.30;;;;;;;;;;5052924;28;20045;-69
2023/04/24 05:50:52;;;;;;;5.28;4.45;;;;;;;;;;5052567;28;20543;-69
2023/04/24 05:53:18;;;;;;;5.78;4.40;;;;;;;;;;5059647;28;20184;-70
2023/04/24 05:55:46;;;;;;;5.68;4.00;;;;;;;;;;5051422;28;20047;-69
2023/04/24 05:58:14;;;;;;;4.30;3.42;;;;;;;;;;5051456;28;20041;-69
2023/04/24 06:00:42;;;;;;;5.45;4.00;;;;;;;;;;5059677;28;20136;-69
2023/04/24 06:03:09;;;;;;;6.75;4.60;;;;;;;;;;5067405;28;20420;-69
2023/04/24 06:05:35;;;;;;;5.00;3.65;;;;;;;;;;5062807;28;20045;-69
2023/04/24 06:08:02;;;;;;;5.32;3.88;;;;;;;;;;5050744;28;20468;-69
2023/04/24 06:10:29;;;;;;;6.03;3.85;;;;;;;;;;5052239;28;20055;-69
2023/04/24 06:13:00;;;;;;;4.97;3.70;;;;;;;;;;5058865;28;20041;-69
2023/04/24 06:15:29;;;;;;;7.47;4.05;;;;;;;;;;5061407;28;20052;-69
2023/04/24 06:17:55;;;;;;;5.95;4.00;;;;;;;;;;5072490;28;20044;-69
2023/04/24 06:20:22;;;;;;;5.88;3.83;;;;;;;;;;5070056;28;20048;-69
2023/04/24 06:22:48;;;;;;;6.55;4.05;;;;;;;;;;5057924;28;20395;-69
2023/04/24 06:25:15;;;;;;;5.57;3.80;;;;;;;;;;5056612;28;20044;-69
2023/04/24 06:27:42;;;;;;;4.70;4.10;;;;;;;;;;5052815;28;20057;-69
2023/04/24 06:30:10;;;;;;;5.07;4.05;;;;;;;;;;5054705;28;20037;-69
2023/04/24 06:32:38;;;;;;;4.72;3.72;;;;;;;;;;5058798;28;20417;-69
2023/04/24 06:35:07;;;;;;;5.30;4.22;;;;;;;;;;5059435;28;20452;-69
2023/04/24 06:37:33;;;;;;;5.30;4.15;;;;;;;;;;5062805;28;20477;-69
2023/04/24 06:40:00;;;;;;;6.43;4.22;;;;;;;;;;5071308;28;20282;-70
2023/04/24 06:42:26;;;;;;;5.85;4.25;;;;;;;;;;5056480;28;20573;-69
2023/04/24 06:44:53;;;;;;;5.85;3.97;;;;;;;;;;5051762;28;20053;-69
2023/04/24 06:47:20;;;;;;;5.68;3.80;;;;;;;;;;5057560;28;20074;-69
2023/04/24 06:49:48;;;;;;;6.32;4.20;;;;;;;;;;5054686;28;20048;-69
2023/04/24 06:52:14;;;;;;;5.90;3.63;;;;;;;;;;5059611;28;20072;-69
2023/04/24 06:54:42;;;;;;;6.18;3.65;;;;;;;;;;5060269;28;20049;-69
2023/04/24 06:57:10;;;;;;;4.05;3.42;;;;;;;;;;5051139;28;20391;-69
2023/04/24 06:59:36;;;;;;;5.03;3.65;;;;;;;;;;5050298;28;20049;-69
2023/04/24 07:02:03;;;;;;;4.90;4.00;;;;;;;;;;5051116;28;20051;-69
2023/04/24 07:04:30;;;;;;;5.15;3.92;;;;;;;;;;5050468;28;20055;-69
2023/04/24 07:06:58;;;;;;;4.57;3.70;;;;;;;;;;5050777;28;20084;-69
2023/04/24 07:09:26;;;;;;;6.68;4.00;;;;;;;;;;5073569;28;20083;-69
2023/04/24 07:11:53;;;;;;;5.05;3.85;;;;;;;;;;5060178;28;20045;-69
2023/04/24 07:14:20;;;;;;;4.47;3.55;;;;;;;;;;5071380;28;20045;-69
2023/04/24 07:16:47;;;;;;;4.93;3.80;;;;;;;;;;5058117;28;20045;-69
2023/04/24 07:19:14;;;;;;;4.22;2.97;;;;;;;;;;5071576;28;20049;-69
2023/04/24 07:21:41;;;;;;;5.80;3.53;;;;;;;;;;5054973;28;20143;-69
2023/04/24 07:24:10;;;;;;;6.82;4.00;;;;;;;;;;5050158;28;20479;-69
2023/04/24 07:26:38;;;;;;;7.15;4.28;;;;;;;;;;5062834;28;20077;-69
2023/04/24 07:29:04;;;;;;;4.70;3.60;;;;;;;;;;5063320;28;20044;-69
2023/04/24 07:31:31;;;;;;;5.18;3.70;;;;;;;;;;5062460;28;20045;-70
2023/04/24 07:33:58;;;;;;;8.35;3.88;;;;;;;;;;5061851;28;20045;-69
2023/04/24 07:36:25;;;;;;;4.38;3.38;;;;;;;;;;5070793;28;20090;-70
2023/04/24 07:38:52;;;;;;;4.65;4.00;;;;;;;;;;5050775;28;20128;-70
2023/04/24 07:41:21;;;;;;;6.45;4.32;;;;;;;;;;5054529;28;20057;-69
2023/04/24 07:43:47;;;;;;;5.03;3.85;;;;;;;;;;5055333;28;20060;-72
2023/04/24 07:46:14;;;;;;;7.38;4.10;;;;;;;;;;5064962;28;20043;-73
2023/04/24 07:48:41;;;;;;;5.45;4.20;;;;;;;;;;5069034;28;20140;-73
2023/04/24 07:51:09;;;;;;;4.97;4.13;;;;;;;;;;5060127;28;20453;-72
2023/04/24 07:53:36;;;;;;;5.72;4.05;;;;;;;;;;5052501;28;20045;-71
2023/04/24 07:56:03;;;;;;;5.40;4.32;;;;;;;;;;5056095;28;20059;-71
2023/04/24 07:58:31;;;;;;;5.85;4.70;;;;;;;;;;5053249;28;20045;-71
2023/04/24 08:00:57;;;;;;;5.60;4.35;;;;;;;;;;5049479;28;20517;-73
2023/04/24 08:03:24;;;;;;;4.88;3.88;;;;;;;;;;5055511;28;20045;-72
2023/04/24 08:05:51;;;;;;;8.15;3.97;;;;;;;;;;5055394;28;20040;-69
2023/04/24 08:08:18;;;;;;;4.43;3.78;;;;;;;;;;5049136;28;20095;-70
2023/04/24 08:10:45;;;;;;;6.50;4.00;;;;;;;;;;5049526;28;20397;-70
2023/04/24 08:13:12;;;;;;;6.25;4.30;;;;;;;;;;5048896;28;20144;-71
2023/04/24 08:15:40;;;;;;;4.88;3.80;;;;;;;;;;5049633;28;20049;-69
2023/04/24 08:18:07;;;;;;;5.63;4.18;;;;;;;;;;5049222;28;20052;-69
2023/04/24 08:20:34;;;;;;;7.32;4.30;;;;;;;;;;5054269;28;20059;-69
2023/04/24 08:23:01;;;;;;;6.45;4.45;;;;;;;;;;5059903;28;20041;-69
2023/04/24 08:25:27;;;;;;;5.68;3.80;;;;;;;;;;5047961;28;20051;-69
2023/04/24 08:27:54;;;;;;;4.90;4.05;;;;;;;;;;5048103;28;20049;-69
2023/04/24 08:30:20;;;;;;;4.97;3.78;;;;;;;;;;5049178;28;20549;-69
2023/04/24 08:32:48;;;;;;;5.70;4.30;;;;;;;;;;5054935;28;20099;-70
2023/04/24 08:35:15;;;;;;;5.70;4.05;;;;;;;;;;5048929;28;20067;-69
2023/04/24 08:37:42;;;;;;;6.38;4.18;;;;;;;;;;5064983;28;20045;-69
2023/04/24 08:40:14;;;;;;;5.82;4.00;;;;;;;;;;5068549;28;20051;-69
2023/04/24 08:42:43;;;;;;;5.35;4.18;;;;;;;;;;5054726;28;20132;-69
2023/04/24 08:45:11;;;;;;;4.20;3.25;;;;;;;;;;5050519;28;20049;-69
2023/04/24 08:47:39;;;;;;;7.30;4.05;;;;;;;;;;5048171;28;20048;-70
2023/04/24 08:50:08;;;;;;;4.95;4.25;;;;;;;;;;5047510;28;20041;-70
2023/04/24 08:52:35;;;;;;;7.15;4.00;;;;;;;;;;5058938;28;20514;-71
2023/04/24 08:55:02;;;;;;;5.05;3.63;;;;;;;;;;5047828;28;20505;-72
2023/04/24 08:57:30;;;;;;;5.30;4.53;;;;;;;;;;5054019;28;20056;-72
2023/04/24 08:59:59;;;;;;;8.52;4.05;;;;;;;;;;5056170;28;20280;-72
2023/04/24 09:02:26;;;;;;;7.38;4.15;;;;;;;;;;5047060;28;20059;-72
2023/04/24 09:04:53;;;;;;;5.38;3.90;;;;;;;;;;5047706;28;20051;-71
2023/04/24 09:07:25;;;;;;;4.97;3.88;;;;;;;;;;5049075;28;20551;-70
2023/04/24 09:09:52;;;;;;;5.90;3.60;;;;;;;;;;5047154;28;20400;-71
2023/04/24 09:12:19;;;;;;;5.28;4.13;;;;;;;;;;5048185;28;20045;-71
2023/04/24 09:14:46;;;;;;;5.63;3.90;;;;;;;;;;5052407;28;20045;-71
2023/04/24 09:17:13;;;;;;;6.85;3.78;;;;;;;;;;5048885;28;20494;-71
2023/04/24 09:19:40;;;;;;;4.93;3.70;;;;;;;;;;5060480;28;20048;-71
2023/04/24 09:22:08;;;;;;;5.45;3.92;;;;;;;;;;5069819;28;20050;-71
2023/04/24 09:24:36;;;;;;;7.53;3.78;;;;;;;;;;5070024;28;20051;-74
2023/04/24 09:27:03;;;;;;;5.20;3.92;;;;;;;;;;5051829;28;20044;-73
2023/04/24 09:29:31;;;;;;;5.63;3.65;;;;;;;;;;5052787;28;20056;-73
2023/04/24 09:31:58;;;;;;;4.72;3.88;;;;;;;;;;5053040;28;20061;-73
2023/04/24 09:34:26;;;;;;;4.88;4.03;;;;;;;;;;5052869;28;20052;-74
2023/04/24 09:36:53;;;;;;;5.18;3.72;;;;;;;;;;5052352;28;20052;-73
2023/04/24 09:39:20;;;;;;;4.63;3.90;;;;;;;;;;5051119;28;20051;-73
2023/04/24 09:41:50;;;;;;;6.68;4.07;;;;;;;;;;5052788;28;20056;-73
2023/04/24 09:44:19;;;;;;;6.18;4.15;;;;;;;;;;5056026;28;20056;-70
2023/04/24 09:46:50;;;;;;;7.03;3.95;;;;;;;;;;5057300;28;20342;-70
2023/04/24 09:49:21;;;;;;;5.90;3.55;;;;;;;;;;5066766;28;20060;-71
2023/04/24 09:51:48;;;;;;;5.13;4.20;;;;;;;;;;5063144;28;20103;-70
2023/04/24 09:54:16;;;;;;;5.93;4.55;;;;;;;;;;5072110;28;20040;-70
2023/04/24 09:56:45;;;;;;;5.95;4.43;;;;;;;;;;5058058;28;20135;-70
2023/04/24 09:59:13;;;;;;;6.05;4.10;;;;;;;;;;5071730;28;20049;-70
2023/04/24 10:01:42;;;;;;;6.70;4.38;;;;;;;;;;5053424;28;20044;-72
2023/04/24 10:04:17;;;;;;;6.80;4.43;;;;;;;;;;5058456;28;20041;-72
2023/04/24 10:06:44;;;;;;;6.18;4.15;;;;;;;;;;5051483;28;20067;-71
2023/04/24 10:09:11;;;;;;;5.40;4.05;;;;;;;;;;5054218;28;20095;-71
2023/04/24 10:11:42;;;;;;;5.95;4.32;;;;;;;;;;5052697;28;20135;-71
2023/04/24 10:14:10;;;;;;;6.15;4.70;;;;;;;;;;5052810;28;20140;-71
2023/04/24 10:16:39;;;;;;;7.32;4.47;;;;;;;;;;5055943;28;20056;-72
2023/04/24 10:19:05;;;;;;;8.52;4.60;;;;;;;;;;5054698;28;20048;-72
2023/04/24 10:21:33;;;;;;;4.72;4.10;;;;;;;;;;5068832;28;20139;-72
2023/04/24 10:24:03;;;;;;;5.32;4.05;;;;;;;;;;5072336;28;20041;-70
2023/04/24 10:26:30;;;;;;;8.02;4.45;;;;;;;;;;5070538;28;20044;-70
2023/04/24 10:28:58;;;;;;;5.95;3.78;;;;;;;;;;5052066;28;20068;-70
2023/04/24 10:31:26;;;;;;;7.60;4.90;;;;;;;;;;5058395;28;20055;-69
2023/04/24 10:33:54;;;;;;;5.82;3.88;;;;;;;;;;5060403;28;20402;-71
2023/04/24 10:36:23;;;;;;;7.78;4.47;;;;;;;;;;5061844;28;20529;-71
2023/04/24 10:38:50;;;;;;;5.78;3.42;;;;;;;;;;5061691;28;20044;-71
2023/04/24 10:41:20;;;;;;;7.55;3.85;;;;;;;;;;5072209;28;20058;-70
2023/04/24 10:43:48;;;;;;;5.57;3.45;;;;;;;;;;5071277;28;20044;-70
2023/04/24 10:46:21;;;;;;;4.57;3.75;;;;;;;;;;5065702;28;20505;-70
2023/04/24 10:48:56;;;;;;;;;;;;;;;;;;5071553;22;20044;-68
2023/04/24 10:51:23;;;;;;;5.10;3.08;;;;;;;;;;5091043;28;19920;-69
2023/04/24 10:53:51;;;;;;;5.20;3.42;;;;;;;;;;5092459;28;20044;-69
2023/04/24 10:56:18;;;;;;;5.53;3.17;;;;;;;;;;5073060;28;20049;-69
2023/04/24 10:58:52;;;;;;;4.47;3.45;;;;;;;;;;5063692;28;20129;-69
2023/04/24 11:01:27;;;;;;;5.32;3.10;;;;;;;;;;5069537;28;20070;-69
2023/04/24 11:03:57;;;;;;;5.13;2.90;;;;;;;;;;5070561;28;20051;-70
2023/04/24 11:06:31;;;;;;;3.45;3.05;;;;;;;;;;5067302;28;20052;-70
2023/04/24 11:09:03;;;;;;;4.30;2.60;;;;;;;;;;5069591;28;20045;-70
2023/04/24 11:11:30;;;;;;;5.00;2.78;;;;;;;;;;5071376;28;20051;-67
2023/04/24 11:14:08;;;;;;;2.95;2.65;;;;;;;;;;5070715;28;20041;-69
2023/04/24 11:16:38;;;;;;;4.13;3.15;;;;;;;;;;5069456;28;20048;-66
2023/04/24 11:19:07;;;;;;;3.58;2.85;;;;;;;;;;5069354;28;20135;-68
2023/04/24 11:21:42;;;;;;;3.95;2.95;;;;;;;;;;5061230;28;20054;-66
2023/04/24 11:24:29;;;;;;;3.63;2.97;;;;;;;;;;5071188;28;20052;-66
2023/04/24 11:26:57;;;;;;;6.40;3.83;;;;;;;;;;5070977;28;20422;-66
2023/04/24 11:29:38;;;;;;;6.93;3.17;;;;;;;;;;5071271;28;20048;-67
2023/04/24 11:32:17;;;;;;;5.55;3.15;;;;;;;;;;5070866;28;20501;-66
2023/04/24 11:34:48;;;;;;;5.07;2.72;;;;;;;;;;5071219;28;20040;-66
2023/04/24 11:37:15;;;;;;;5.05;2.80;;;;;;;;;;5070597;28;20151;-66
2023/04/24 11:39:42;;;;;;;3.05;2.58;;;;;;;;;;5071268;28;20274;-67
2023/04/24 11:42:09;;;;;;;5.05;3.10;;;;;;;;;;5070176;28;20395;-67
2023/04/24 11:44:37;;;;;;;3.53;3.15;;;;;;;;;;5068282;28;20398;-67
2023/04/24 11:47:03;;;;;;;4.00;3.10;;;;;;;;;;5069812;28;20067;-67
2023/04/24 11:49:30;;;;;;;4.50;3.38;;;;;;;;;;5070224;28;20040;-67
2023/04/24 11:51:58;;;;;;;7.95;3.78;;;;;;;;;;5069551;28;20260;-67
2023/04/24 11:54:25;;;;;;;3.55;2.72;;;;;;;;;;5070561;28;20047;-67
2023/04/24 11:56:51;;;;;;;4.32;3.40;;;;;;;;;;5071034;28;20490;-67
2023/04/24 11:59:18;;;;;;;6.32;3.85;;;;;;;;;;5071113;28;20044;-66
2023/04/24 12:01:46;;;;;;;5.32;4.10;;;;;;;;;;5070974;28;20056;-66
2023/04/24 12:04:13;;;;;;;3.92;2.92;;;;;;;;;;5070686;28;20048;-67
2023/04/24 12:06:39;;;;;;;5.55;3.63;;;;;;;;;;5070966;28;20048;-66
2023/04/24 12:09:09;;;;;;;4.22;3.00;;;;;;;;;;5069930;28;20048;-66
2023/04/24 12:11:35;;;;;;;9.55;5.50;;;;;;;;;;5070996;28;20049;-67
2023/04/24 12:14:11;;;;;;;4.72;3.40;;;;;;;;;;5070476;28;20405;-67
2023/04/24 12:16:38;;;;;;;4.82;3.17;;;;;;;;;;5070999;28;20051;-66
2023/04/24 12:19:05;;;;;;;5.22;3.60;;;;;;;;;;5070134;28;20040;-67
2023/04/24 12:21:32;;;;;;;5.45;3.67;;;;;;;;;;5071075;28;20557;-66
2023/04/24 12:23:59;;;;;;;8.88;4.53;;;;;;;;;;5068755;28;20467;-67
2023/04/24 12:26:28;;;;;;;4.88;3.60;;;;;;;;;;5070541;28;20474;-67
2023/04/24 12:28:55;;;;;;;7.50;4.35;;;;;;;;;;5070144;28;20079;-67
2023/04/24 12:31:23;;;;;;;7.45;3.65;;;;;;;;;;5070173;28;20040;-67
2023/04/24 12:33:50;;;;;;;5.55;3.60;;;;;;;;;;5070008;28;20072;-66
2023/04/24 12:36:17;;;;;;;5.30;3.35;;;;;;;;;;5069951;28;20056;-67
2023/04/24 12:38:46;;;;;;;6.75;4.18;;;;;;;;;;5069801;28;20379;-67
2023/04/24 12:41:14;;;;;;;6.85;3.63;;;;;;;;;;5070252;28;20052;-66
2023/04/24 12:43:53;;;;;;;6.78;3.55;;;;;;;;;;5069904;28;20549;-67
2023/04/24 12:46:20;;;;;;;4.85;4.03;;;;;;;;;;5070375;28;20053;-67
2023/04/24 12:48:49;;;;;;;6.40;3.78;;;;;;;;;;5067255;28;20067;-67
2023/04/24 12:51:16;;;;;;;4.90;3.70;;;;;;;;;;5070131;28;20661;-67
2023/04/24 12:53:42;;;;;;;4.18;3.38;;;;;;;;;;5069781;28;20074;-67
2023/04/24 12:56:09;;;;;;;7.05;4.63;;;;;;;;;;5069496;28;20055;-66
2023/04/24 12:58:35;;;;;;;8.57;4.72;;;;;;;;;;5069674;28;20402;-66
2023/04/24 13:01:03;;;;;;;4.43;3.75;;;;;;;;;;5069656;28;20045;-66
2023/04/24 13:03:30;;;;;;;4.65;3.40;;;;;;;;;;5069947;28;20045;-66
2023/04/24 13:05:57;;;;;;;5.47;3.70;;;;;;;;;;5066121;28;20055;-66
2023/04/24 13:08:23;;;;;;;5.97;3.33;;;;;;;;;;5069323;28;20071;-66
2023/04/24 13:10:50;;;;;;;5.53;3.42;;;;;;;;;;5069373;28;20490;-67
2023/04/24 13:13:17;;;;;;;4.40;3.10;;;;;;;;;;5069245;28;20436;-66
2023/04/24 13:15:46;;;;;;;5.47;3.17;;;;;;;;;;5069142;28;20049;-67
2023/04/24 13:18:14;;;;;;;4.55;3.38;;;;;;;;;;5069488;28;20045;-67
2023/04/24 13:20:41;;;;;;;5.30;3.40;;;;;;;;;;5069887;28;20044;-66
2023/04/24 13:23:08;;;;;;;4.43;3.35;;;;;;;;;;5069266;28;20060;-66
2023/04/24 13:25:37;;;;;;;4.45;3.50;;;;;;;;;;5069267;28;20536;-67
2023/04/24 13:28:03;;;;;;;4.85;3.17;;;;;;;;;;5068781;28;20131;-67
2023/04/24 13:30:30;;;;;;;4.28;3.30;;;;;;;;;;5068960;28;20067;-66
2023/04/24 13:32:56;;;;;;;6.00;3.40;;;;;;;;;;5069175;28;20055;-66
2023/04/24 13:35:27;;;;;;;6.10;4.07;;;;;;;;;;5067728;28;20138;-67
2023/04/24 13:37:54;;;;;;;4.78;3.60;;;;;;;;;;5068527;28;20565;-67
2023/04/24 13:40:20;;;;;;;8.25;4.07;;;;;;;;;;5069301;28;20055;-67
2023/04/24 13:42:47;;;;;;;5.38;3.75;;;;;;;;;;5069012;28;20048;-67
2023/04/24 13:45:14;;;;;;;5.88;3.58;;;;;;;;;;5069291;28;20131;-67
2023/04/24 13:47:41;;;;;;;4.22;3.20;;;;;;;;;;5068818;28;20102;-66
2023/04/24 13:50:09;;;;;;;3.50;3.17;;;;;;;;;;5069065;28;20068;-67
2023/04/24 13:52:37;;;;;;;5.63;4.07;;;;;;;;;;5068982;28;20056;-67
2023/04/24 13:55:04;;;;;;;4.80;3.47;;;;;;;;;;5069083;28;20047;-66
2023/04/24 13:57:31;;;;;;;5.47;3.15;;;;;;;;;;5068918;28;20538;-66
2023/04/24 14:00:01;;;;;;;3.90;3.50;;;;;;;;;;5069304;28;20049;-66
2023/04/24 14:02:27;;;;;;;4.82;3.40;;;;;;;;;;5069341;28;20053;-67
2023/04/24 14:04:54;;;;;;;3.88;3.20;;;;;;;;;;5068812;28;20049;-67
2023/04/24 14:07:21;;;;;;;3.22;2.92;;;;;;;;;;5068138;28;20052;-67
2023/04/24 14:09:49;;;;;;;5.63;3.60;;;;;;;;;;5072962;28;20378;-67
2023/04/24 14:12:19;;;;;;;4.15;3.25;;;;;;;;;;5072756;28;20048;-67
2023/04/24 14:14:46;;;;;;;3.65;3.10;;;;;;;;;;5072668;28;20052;-66
2023/04/24 14:17:13;;;;;;;4.68;3.40;;;;;;;;;;5072219;28;20482;-67
2023/04/24 14:19:39;;;;;;;4.38;2.95;;;;;;;;;;5072134;28;20047;-66
2023/04/24 14:22:06;;;;;;;3.20;2.90;;;;;;;;;;5072656;28;20754;-66
2023/04/24 14:24:33;;;;;;;5.05;3.08;;;;;;;;;;5072415;28;20135;-66
2023/04/24 14:27:01;;;;;;;5.07;2.97;;;;;;;;;;5071988;28;20056;-66
2023/04/24 14:29:27;;;;;;;4.35;3.00;;;;;;;;;;5072592;28;20452;-66
2023/04/24 14:31:54;;;;;;;4.40;3.13;;;;;;;;;;5072433;28;20055;-66
2023/04/24 14:34:21;;;;;;;4.40;2.80;;;;;;;;;;5072250;28;20051;-66
2023/04/24 14:36:47;;;;;;;5.82;3.35;;;;;;;;;;5066127;28;20121;-66
2023/04/24 14:39:14;;;;;;;7.55;3.58;;;;;;;;;;5071522;28;20508;-66
2023/04/24 14:41:40;;;;;;;5.13;3.60;;;;;;;;;;5072244;28;20409;-65
2023/04/24 14:44:08;;;;;;;5.10;3.55;;;;;;;;;;5072192;28;20044;-65
2023/04/24 14:46:35;;;;;;;3.28;2.88;;;;;;;;;;5072103;28;20041;-65